createdAt,value
2024-02-03T00:00:41.612Z,99485.84
2024-02-03T00:03:09.672Z,99491.91
2024-02-03T00:05:37.610Z,99479.16
2024-02-03T00:08:05.796Z,99484.41
2024-02-03T00:10:34.411Z,99492.09
2024-02-03T00:13:02.421Z,99476.22
2024-02-03T00:15:31.283Z,99470.44
2024-02-03T00:17:59.481Z,99476.00
2024-02-03T00:20:27.817Z,99463.25
2024-02-03T00:22:56.303Z,99447.03
2024-02-03T00:25:24.411Z,99450.69
2024-02-03T00:27:52.383Z,99450.91
2024-02-03T00:30:20.388Z,99466.38
2024-02-03T00:32:48.451Z,99469.25
2024-02-03T00:35:16.416Z,99476.38
2024-02-03T00:37:44.275Z,99479.91
2024-02-03T00:40:12.682Z,99491.84
2024-02-03T00:42:40.682Z,99475.41
2024-02-03T00:45:09.046Z,99461.84
2024-02-03T00:47:37.192Z,99465.22
2024-02-03T00:50:05.369Z,99466.06
2024-02-03T00:52:33.365Z,99469.69
2024-02-03T00:55:01.481Z,99464.53
2024-02-03T00:57:29.543Z,99465.38
2024-02-03T00:59:57.499Z,99468.84
2024-02-03T01:02:25.492Z,99459.41
2024-02-03T01:04:53.510Z,99458.13
2024-02-03T01:07:21.674Z,99450.69
2024-02-03T01:09:49.776Z,99467.50
2024-02-03T01:12:18.184Z,99465.66
2024-02-03T01:14:46.300Z,99468.06
2024-02-03T01:17:14.374Z,99468.91
2024-02-03T01:19:42.417Z,99471.44
2024-02-03T01:22:10.530Z,99480.19
2024-02-03T01:24:38.652Z,99481.72
2024-02-03T01:27:06.864Z,99483.72
2024-02-03T01:29:35.026Z,99490.53
2024-02-03T01:32:03.157Z,99486.00
2024-02-03T01:34:31.180Z,99487.47
2024-02-03T01:36:59.167Z,99483.00
2024-02-03T01:39:27.157Z,99496.72
2024-02-03T01:41:55.092Z,99495.66
2024-02-03T01:44:31.471Z,99505.97
2024-02-03T01:47:00.486Z,99501.09
2024-02-03T01:49:29.684Z,99504.44
2024-02-03T01:51:58.615Z,99505.28
2024-02-03T01:54:30.353Z,99500.72
2024-02-03T01:56:59.878Z,99490.78
2024-02-03T01:59:29.943Z,99505.38
2024-02-03T02:02:01.154Z,99515.09
2024-02-03T02:04:32.773Z,99498.41
2024-02-03T02:07:00.948Z,99510.00
2024-02-03T02:09:30.384Z,99504.59
2024-02-03T02:11:59.323Z,99506.72
2024-02-03T02:14:27.810Z,99510.97
2024-02-03T02:16:58.700Z,99507.56
2024-02-03T02:19:26.943Z,99501.63
2024-02-03T02:21:55.137Z,99515.13
2024-02-03T02:24:23.131Z,99505.88
2024-02-03T02:26:51.100Z,99509.84
2024-02-03T02:29:19.142Z,99512.78
2024-02-03T02:31:47.102Z,99505.50
2024-02-03T02:34:15.168Z,99511.03
2024-02-03T02:36:45.393Z,99507.22
2024-02-03T02:39:13.493Z,99523.22
2024-02-03T02:41:41.403Z,99526.94
2024-02-03T02:44:09.531Z,99528.03
2024-02-03T02:46:37.713Z,99522.38
2024-02-03T02:49:09.139Z,99523.03
2024-02-03T02:51:37.439Z,99524.97
2024-02-03T02:54:05.518Z,99527.47
2024-02-03T02:56:33.557Z,99531.34
2024-02-03T02:59:01.628Z,99537.84
2024-02-03T03:01:29.460Z,99537.78
2024-02-03T03:03:57.446Z,99541.72
2024-02-03T03:06:25.578Z,99543.13
2024-02-03T03:08:53.581Z,99545.88
2024-02-03T03:11:21.672Z,99542.22
2024-02-03T03:13:49.835Z,99537.69
2024-02-03T03:16:17.759Z,99538.50
2024-02-03T03:18:45.842Z,99541.22
2024-02-03T03:21:14.153Z,99543.03
2024-02-03T03:23:42.125Z,99548.31
2024-02-03T03:26:10.047Z,99546.50
2024-02-03T03:28:38.443Z,99549.69
2024-02-03T03:31:06.400Z,99553.59
2024-02-03T03:33:34.503Z,99544.88
2024-02-03T03:36:02.632Z,99546.53
2024-02-03T03:38:30.979Z,99556.63
2024-02-03T03:40:58.909Z,99559.31
2024-02-03T03:43:26.921Z,99557.16
2024-02-03T03:45:54.883Z,99549.94
2024-02-03T03:48:22.912Z,99543.94
2024-02-03T03:50:51.029Z,99554.16
2024-02-03T03:53:18.975Z,99544.81
2024-02-03T03:55:47.089Z,99544.69
2024-02-03T03:58:14.925Z,99553.88
2024-02-03T04:00:42.892Z,99554.88
2024-02-03T04:03:11.044Z,99549.03
2024-02-03T04:05:38.984Z,99551.69
2024-02-03T04:08:07.731Z,99548.19
2024-02-03T04:10:35.813Z,99558.19
2024-02-03T04:13:03.999Z,99556.38
2024-02-03T04:15:32.820Z,99556.69
2024-02-03T04:18:01.105Z,99558.72
2024-02-03T04:20:29.075Z,99555.69
2024-02-03T04:22:56.938Z,99547.00
2024-02-03T04:25:24.789Z,99547.34
2024-02-03T04:27:52.756Z,99550.34
2024-02-03T04:30:23.556Z,99548.03
2024-02-03T04:32:55.691Z,99552.53
2024-02-03T04:35:24.676Z,99547.19
2024-02-03T04:37:52.598Z,99548.69
2024-02-03T04:40:20.613Z,99546.69
2024-02-03T04:42:48.513Z,99553.53
2024-02-03T04:45:16.825Z,99556.38
2024-02-03T04:47:45.022Z,99563.25
2024-02-03T04:50:13.176Z,99556.22
2024-02-03T04:52:42.136Z,99567.91
2024-02-03T04:55:10.087Z,99562.88
2024-02-03T04:57:38.291Z,99567.75
2024-02-03T05:00:07.296Z,99572.91
2024-02-03T05:02:35.484Z,99575.44
2024-02-03T05:05:03.548Z,99570.06
2024-02-03T05:07:32.845Z,99574.75
2024-02-03T05:10:01.364Z,99583.28
2024-02-03T05:12:29.873Z,99577.44
2024-02-03T05:14:59.546Z,99581.13
2024-02-03T05:17:28.569Z,99583.78
2024-02-03T05:19:56.520Z,99580.94
2024-02-03T05:22:24.427Z,99566.41
2024-02-03T05:24:52.497Z,99580.78
2024-02-03T05:27:20.631Z,99578.78
2024-02-03T05:29:48.531Z,99585.78
2024-02-03T05:32:16.543Z,99579.13
2024-02-03T05:34:44.563Z,99573.91
2024-02-03T05:37:12.529Z,99574.78
2024-02-03T05:39:40.694Z,99581.94
2024-02-03T05:42:08.593Z,99568.41
2024-02-03T05:44:36.955Z,99582.09
2024-02-03T05:47:04.947Z,99569.91
2024-02-03T05:49:32.907Z,99570.56
2024-02-03T05:52:01.146Z,99575.72
2024-02-03T05:54:29.278Z,99566.19
2024-02-03T05:56:57.166Z,99569.22
2024-02-03T05:59:35.439Z,99574.03
2024-02-03T06:02:06.557Z,99570.91
2024-02-03T06:04:34.727Z,99572.72
2024-02-03T06:07:02.901Z,99575.06
2024-02-03T06:09:31.386Z,99584.06
2024-02-03T06:11:59.518Z,99585.25
2024-02-03T06:14:27.425Z,99590.94
2024-02-03T06:16:55.375Z,99583.09
2024-02-03T06:19:23.565Z,99590.97
2024-02-03T06:21:51.554Z,99593.63
2024-02-03T06:24:19.568Z,99604.03
2024-02-03T06:26:47.565Z,99598.53
2024-02-03T06:29:15.366Z,99612.34
2024-02-03T06:31:43.180Z,99615.41
2024-02-03T06:34:11.337Z,99621.53
2024-02-03T06:36:39.582Z,99623.81
2024-02-03T06:39:07.561Z,99631.03
2024-02-03T06:41:36.400Z,99642.13
2024-02-03T06:44:04.358Z,99629.63
2024-02-03T06:46:32.782Z,99642.47
2024-02-03T06:49:00.825Z,99642.16
2024-02-03T06:51:28.705Z,99644.16
2024-02-03T06:53:56.572Z,99649.00
2024-02-03T06:56:24.541Z,99651.31
2024-02-03T06:58:52.558Z,99645.81
2024-02-03T07:01:20.605Z,99648.16
2024-02-03T07:03:48.748Z,99644.81
2024-02-03T07:06:16.712Z,99639.97
2024-02-03T07:08:46.496Z,99639.09
2024-02-03T07:11:15.620Z,99641.63
2024-02-03T07:13:43.753Z,99641.31
2024-02-03T07:16:11.862Z,99636.47
2024-02-03T07:18:39.911Z,99642.97
2024-02-03T07:21:07.886Z,99655.03
2024-02-03T07:23:35.886Z,99651.53
2024-02-03T07:26:03.825Z,99665.06
2024-02-03T07:28:31.717Z,99669.25
2024-02-03T07:31:00.142Z,99669.75
2024-02-03T07:33:28.183Z,99673.75
2024-02-03T07:35:56.251Z,99676.63
2024-02-03T07:38:26.700Z,99687.16
2024-02-03T07:40:55.098Z,99686.16
2024-02-03T07:43:23.120Z,99683.47
2024-02-03T07:45:51.180Z,99694.16
2024-02-03T07:48:19.251Z,99684.97
2024-02-03T07:50:47.243Z,99693.69
2024-02-03T07:53:15.268Z,99693.50
2024-02-03T07:55:43.214Z,99690.47
2024-02-03T07:58:11.125Z,99687.63
2024-02-03T08:00:39.595Z,99688.66
2024-02-03T08:03:07.567Z,99687.34
2024-02-03T08:05:35.511Z,99687.97
2024-02-03T08:08:03.812Z,99698.81
2024-02-03T08:10:31.622Z,99687.47
2024-02-03T08:12:59.780Z,99687.13
2024-02-03T08:15:27.958Z,99692.16
2024-02-03T08:17:55.881Z,99695.19
2024-02-03T08:20:23.903Z,99683.13
2024-02-03T08:22:53.417Z,99681.78
2024-02-03T08:25:21.503Z,99685.94
2024-02-03T08:27:49.637Z,99684.97
2024-02-03T08:30:17.684Z,99681.13
2024-02-03T08:32:45.995Z,99685.31
2024-02-03T08:37:46.630Z,99680.78
2024-02-03T08:40:19.379Z,99675.25
2024-02-03T08:42:48.277Z,99673.41
2024-02-03T08:45:17.252Z,99669.72
2024-02-03T08:47:45.364Z,99668.88
2024-02-03T08:50:13.298Z,99661.69
2024-02-03T08:52:41.498Z,99659.31
2024-02-03T08:55:09.738Z,99663.16
2024-02-03T08:57:37.726Z,99670.91
2024-02-03T09:00:06.800Z,99673.59
2024-02-03T09:02:34.914Z,99674.94
2024-02-03T09:05:03.567Z,99672.03
2024-02-03T09:07:35.745Z,99674.34
2024-02-03T09:10:07.093Z,99668.84
2024-02-03T09:12:35.112Z,99674.06
2024-02-03T09:15:03.061Z,99672.00
2024-02-03T09:17:32.546Z,99671.19
2024-02-03T09:20:00.676Z,99677.09
2024-02-03T09:22:28.608Z,99671.03
2024-02-03T09:24:56.801Z,99675.25
2024-02-03T09:27:25.303Z,99679.75
2024-02-03T09:29:53.479Z,99671.00
2024-02-03T09:32:24.907Z,99662.59
2024-02-03T09:34:53.066Z,99672.72
2024-02-03T09:39:52.001Z,99667.78
2024-02-03T09:42:20.334Z,99667.69
2024-02-03T09:44:48.428Z,99664.59
2024-02-03T09:47:17.467Z,99667.03
2024-02-03T09:49:46.023Z,99658.22
2024-02-03T09:52:16.145Z,99649.34
2024-02-03T09:54:47.876Z,99656.31
2024-02-03T09:57:16.058Z,99654.72
2024-02-03T09:59:51.060Z,99658.38
2024-02-03T10:02:19.852Z,99651.50
2024-02-03T10:04:49.113Z,99649.03
2024-02-03T10:07:21.015Z,99646.34
2024-02-03T10:12:22.467Z,99656.47
2024-02-03T10:15:06.910Z,99658.13
2024-02-03T10:17:36.339Z,99658.50
2024-02-03T10:20:08.146Z,99665.31
2024-02-03T10:22:38.746Z,99672.31
2024-02-03T10:25:12.974Z,99676.75
2024-02-03T10:27:43.038Z,99680.22
2024-02-03T10:30:11.894Z,99667.69
2024-02-03T10:32:39.928Z,99672.78
2024-02-03T10:35:08.158Z,99678.59
2024-02-03T10:37:38.209Z,99668.56
2024-02-03T10:40:06.914Z,99669.84
2024-02-03T10:42:38.453Z,99661.25
2024-02-03T10:45:11.842Z,99649.28
2024-02-03T10:47:45.248Z,99649.63
2024-02-03T10:50:14.141Z,99644.59
2024-02-03T10:52:46.795Z,99656.06
2024-02-03T10:55:18.543Z,99640.38
2024-02-03T10:57:48.831Z,99644.19
2024-02-03T11:00:20.115Z,99645.84
2024-02-03T11:02:55.358Z,99652.16
2024-02-03T11:05:25.134Z,99658.84
2024-02-03T11:07:53.114Z,99653.22
2024-02-03T11:10:30.294Z,99647.41
2024-02-03T11:13:18.484Z,99649.00
2024-02-03T11:15:46.649Z,99647.41
2024-02-03T11:18:16.126Z,99635.50
2024-02-03T11:20:44.197Z,99636.22
2024-02-03T11:23:14.603Z,99635.91
2024-02-03T11:25:47.891Z,99633.00
2024-02-03T11:28:15.871Z,99625.41
2024-02-03T11:30:43.802Z,99624.41
2024-02-03T11:33:12.470Z,99613.19
2024-02-03T11:35:43.273Z,99615.78
2024-02-03T11:38:13.701Z,99611.09
2024-02-03T11:40:45.979Z,99600.50
2024-02-03T11:43:16.789Z,99605.50
2024-02-03T11:45:47.337Z,99597.28
2024-02-03T11:48:16.029Z,99595.19
2024-02-03T11:50:44.772Z,99588.38
2024-02-03T11:53:24.012Z,99590.03
2024-02-03T11:55:52.402Z,99578.31
2024-02-03T11:58:20.613Z,99579.66
2024-02-03T12:00:49.051Z,99575.13
2024-02-03T12:03:17.303Z,99566.66
2024-02-03T12:05:45.694Z,99557.22
2024-02-03T12:08:13.853Z,99560.09
2024-02-03T12:10:41.775Z,99565.47
2024-02-03T12:13:09.767Z,99558.88
2024-02-03T12:15:37.887Z,99562.94
2024-02-03T12:18:06.074Z,99560.38
2024-02-03T12:20:34.103Z,99554.53
2024-02-03T12:23:03.040Z,99555.81
2024-02-03T12:25:30.921Z,99553.88
2024-02-03T12:27:58.865Z,99551.38
2024-02-03T12:30:26.896Z,99552.41
2024-02-03T12:32:54.785Z,99548.13
2024-02-03T12:35:22.772Z,99538.50
2024-02-03T12:37:50.828Z,99528.59
2024-02-03T12:40:19.030Z,99524.88
2024-02-03T12:42:47.698Z,99524.13
2024-02-03T12:45:15.757Z,99519.59
2024-02-03T12:47:43.798Z,99518.59
2024-02-03T12:50:12.014Z,99518.09
2024-02-03T12:52:40.358Z,99518.84
2024-02-03T12:55:08.802Z,99517.28
2024-02-03T12:57:36.984Z,99521.06
2024-02-03T13:00:05.771Z,99513.03
2024-02-03T13:02:34.088Z,99518.59
2024-02-03T13:05:02.036Z,99511.63
2024-02-03T13:07:30.305Z,99505.97
2024-02-03T13:09:58.298Z,99513.94
2024-02-03T13:12:26.461Z,99518.28
2024-02-03T13:14:54.428Z,99508.03
2024-02-03T13:17:23.757Z,99502.91
2024-02-03T13:19:52.153Z,99506.53
2024-02-03T13:22:20.289Z,99508.47
2024-02-03T13:24:48.169Z,99502.81
2024-02-03T13:27:16.240Z,99502.56
2024-02-03T13:29:44.293Z,99506.56
2024-02-03T13:32:15.516Z,99507.34
2024-02-03T13:34:43.997Z,99494.78
2024-02-03T13:37:12.165Z,99495.50
2024-02-03T13:39:40.082Z,99498.81
2024-02-03T13:42:08.329Z,99492.41
2024-02-03T13:44:36.310Z,99493.72
2024-02-03T13:47:04.415Z,99495.66
2024-02-03T13:49:32.543Z,99482.13
2024-02-03T13:52:01.160Z,99492.56
2024-02-03T13:54:29.583Z,99494.47
2024-02-03T13:56:57.664Z,99493.28
2024-02-03T13:59:29.437Z,99482.09
2024-02-03T14:01:57.808Z,99488.31
2024-02-03T14:04:25.811Z,99490.50
2024-02-03T14:06:54.616Z,99491.94
2024-02-03T14:09:22.804Z,99479.94
2024-02-03T14:11:54.949Z,99490.75
2024-02-03T14:14:23.757Z,99484.97
2024-02-03T14:16:51.912Z,99497.09
2024-02-03T14:19:20.076Z,99488.69
2024-02-03T14:21:48.633Z,99490.16
2024-02-03T14:24:16.561Z,99484.66
2024-02-03T14:26:44.862Z,99486.34
2024-02-03T14:29:15.168Z,99488.06
2024-02-03T14:31:43.075Z,99483.19
2024-02-03T14:34:11.169Z,99471.91
2024-02-03T14:36:39.218Z,99469.69
2024-02-03T14:39:08.057Z,99469.19
2024-02-03T14:41:36.077Z,99477.88
2024-02-03T14:44:04.085Z,99476.53
2024-02-03T14:46:32.004Z,99481.81
2024-02-03T14:49:00.016Z,99484.13
2024-02-03T14:51:28.822Z,99480.19
2024-02-03T14:53:57.361Z,99479.47
2024-02-03T14:56:25.198Z,99477.50
2024-02-03T14:58:53.163Z,99475.25
2024-02-03T15:01:21.164Z,99476.47
2024-02-03T15:03:49.268Z,99476.34
2024-02-03T15:06:18.141Z,99486.91
2024-02-03T15:08:46.216Z,99492.28
2024-02-03T15:11:14.189Z,99493.09
2024-02-03T15:13:42.128Z,99504.28
2024-02-03T15:16:09.972Z,99498.28
2024-02-03T15:18:38.088Z,99495.28
2024-02-03T15:21:06.734Z,99496.56
2024-02-03T15:23:34.549Z,99505.53
2024-02-03T15:26:02.833Z,99506.25
2024-02-03T15:28:33.483Z,99499.56
2024-02-03T15:31:06.181Z,99504.31
2024-02-03T15:33:37.494Z,99504.19
2024-02-03T15:36:07.467Z,99498.84
2024-02-03T15:38:35.705Z,99504.31
2024-02-03T15:41:04.688Z,99506.56
2024-02-03T15:43:34.490Z,99500.16
2024-02-03T15:46:03.554Z,99503.63
2024-02-03T15:48:31.616Z,99498.94
2024-02-03T15:50:59.730Z,99503.75
2024-02-03T15:53:27.725Z,99504.88
2024-02-03T15:55:55.744Z,99503.34
2024-02-03T15:58:24.438Z,99508.44
2024-02-03T16:00:53.778Z,99497.59
2024-02-03T16:03:22.594Z,99508.09
2024-02-03T16:05:50.983Z,99509.03
2024-02-03T16:08:21.428Z,99506.72
2024-02-03T16:10:50.929Z,99517.13
2024-02-03T16:13:19.104Z,99518.06
2024-02-03T16:15:47.641Z,99514.69
2024-02-03T16:18:16.070Z,99522.22
2024-02-03T16:20:44.297Z,99510.72
2024-02-03T16:23:12.331Z,99519.13
2024-02-03T16:25:40.277Z,99514.41
2024-02-03T16:28:08.657Z,99509.97
2024-02-03T16:30:36.648Z,99509.38
2024-02-03T16:33:04.691Z,99524.84
2024-02-03T16:35:32.842Z,99511.78
2024-02-03T16:38:00.814Z,99510.34
2024-02-03T16:40:29.571Z,99506.50
2024-02-03T16:42:57.644Z,99510.13
2024-02-03T16:45:26.579Z,99516.25
2024-02-03T16:47:55.724Z,99503.81
2024-02-03T16:50:24.379Z,99506.28
2024-02-03T16:52:54.048Z,99510.63
2024-02-03T16:55:22.785Z,99525.28
2024-02-03T16:57:50.851Z,99522.19
2024-02-03T17:00:18.959Z,99512.47
2024-02-03T17:02:46.917Z,99525.63
2024-02-03T17:05:15.082Z,99527.59
2024-02-03T17:07:42.950Z,99531.09
2024-02-03T17:10:10.936Z,99537.06
2024-02-03T17:12:39.081Z,99544.22
2024-02-03T17:15:07.951Z,99537.63
2024-02-03T17:17:36.045Z,99543.13
2024-02-03T17:20:05.797Z,99542.81
2024-02-03T17:22:34.119Z,99539.19
2024-02-03T17:25:04.479Z,99541.88
2024-02-03T17:27:32.658Z,99545.31
2024-02-03T17:30:00.665Z,99539.75
2024-02-03T17:32:28.614Z,99540.16
2024-02-03T17:34:56.798Z,99542.25
2024-02-03T17:37:25.752Z,99558.00
2024-02-03T17:39:53.678Z,99560.75
2024-02-03T17:42:21.897Z,99556.50
2024-02-03T17:44:49.699Z,99562.06
2024-02-03T17:47:18.942Z,99565.94
2024-02-03T17:49:47.067Z,99566.72
2024-02-03T17:52:15.115Z,99566.38
2024-02-03T17:54:43.660Z,99569.31
2024-02-03T17:57:12.154Z,99574.19
2024-02-03T17:59:40.028Z,99582.75
2024-02-03T18:02:07.927Z,99578.00
2024-02-03T18:04:35.948Z,99573.09
2024-02-03T18:07:04.159Z,99581.53
2024-02-03T18:09:32.143Z,99570.91
2024-02-03T18:12:00.168Z,99573.47
2024-02-03T18:14:28.087Z,99590.16
2024-02-03T18:16:55.892Z,99581.03
2024-02-03T18:19:23.946Z,99582.09
2024-02-03T18:21:51.911Z,99573.25
2024-02-03T18:24:19.830Z,99575.78
2024-02-03T18:26:47.980Z,99566.34
2024-02-03T18:29:15.797Z,99569.78
2024-02-03T18:31:43.615Z,99577.16
2024-02-03T18:34:11.960Z,99568.97
2024-02-03T18:36:40.026Z,99571.28
2024-02-03T18:39:07.992Z,99570.69
2024-02-03T18:41:35.923Z,99569.28
2024-02-03T18:44:03.793Z,99573.75
2024-02-03T18:46:32.437Z,99568.84
2024-02-03T18:49:00.817Z,99558.28
2024-02-03T18:51:29.029Z,99556.47
2024-02-03T18:53:56.991Z,99547.91
2024-02-03T18:56:25.065Z,99546.53
2024-02-03T18:58:52.869Z,99545.47
2024-02-03T19:01:23.873Z,99548.91
2024-02-03T19:03:52.707Z,99551.72
2024-02-03T19:06:20.721Z,99554.63
2024-02-03T19:08:49.408Z,99553.06
2024-02-03T19:11:17.779Z,99552.03
2024-02-03T19:13:45.585Z,99550.16
2024-02-03T19:16:13.579Z,99551.22
2024-02-03T19:18:41.889Z,99555.19
2024-02-03T19:21:12.149Z,99542.63
2024-02-03T19:23:41.322Z,99548.28
2024-02-03T19:26:14.284Z,99544.19
2024-02-03T19:28:42.406Z,99537.03
2024-02-03T19:31:14.094Z,99545.31
2024-02-03T19:33:43.837Z,99548.19
2024-02-03T19:36:12.181Z,99539.91
2024-02-03T19:38:40.023Z,99539.31
2024-02-03T19:41:08.936Z,99543.63
2024-02-03T19:43:36.778Z,99537.97
2024-02-03T19:46:04.895Z,99540.97
2024-02-03T19:48:34.262Z,99536.75
2024-02-03T19:51:04.923Z,99536.38
2024-02-03T19:53:33.313Z,99531.06
2024-02-03T19:56:01.336Z,99528.06
2024-02-03T19:58:29.314Z,99526.84
2024-02-03T20:00:59.390Z,99522.28
2024-02-03T20:03:27.497Z,99529.78
2024-02-03T20:05:55.353Z,99506.69
2024-02-03T20:08:23.423Z,99514.13
2024-02-03T20:10:53.542Z,99521.44
2024-02-03T20:13:23.560Z,99521.09
2024-02-03T20:15:52.808Z,99518.88
2024-02-03T20:18:21.302Z,99524.72
2024-02-03T20:20:53.332Z,99521.94
2024-02-03T20:23:21.869Z,99517.59
2024-02-03T20:25:49.978Z,99520.91
2024-02-03T20:28:20.491Z,99520.13
2024-02-03T20:30:50.667Z,99527.34
2024-02-03T20:33:19.428Z,99523.84
2024-02-03T20:35:47.901Z,99521.34
2024-02-03T20:38:15.995Z,99529.00
2024-02-03T20:40:47.780Z,99521.16
2024-02-03T20:43:18.772Z,99520.16
2024-02-03T20:45:48.237Z,99524.31
2024-02-03T20:48:17.467Z,99519.91
2024-02-03T20:50:46.316Z,99522.22
2024-02-03T20:53:14.758Z,99530.34
2024-02-03T20:55:42.808Z,99530.59
2024-02-03T20:58:13.848Z,99524.25
2024-02-03T21:00:43.668Z,99521.75
2024-02-03T21:03:12.585Z,99519.59
2024-02-03T21:05:40.844Z,99514.38
2024-02-03T21:08:09.729Z,99506.13
2024-02-03T21:10:37.913Z,99501.38
2024-02-03T21:13:06.700Z,99512.88
2024-02-03T21:15:34.933Z,99512.34
2024-02-03T21:18:03.152Z,99503.03
2024-02-03T21:20:33.062Z,99505.50
2024-02-03T21:23:01.118Z,99506.50
2024-02-03T21:25:29.180Z,99494.81
2024-02-03T21:27:57.671Z,99490.41
2024-02-03T21:30:25.704Z,99486.66
2024-02-03T21:32:54.693Z,99483.66
2024-02-03T21:35:22.864Z,99486.81
2024-02-03T21:37:51.303Z,99484.69
2024-02-03T21:40:19.253Z,99479.16
2024-02-03T21:42:47.195Z,99481.22
2024-02-03T21:45:15.146Z,99483.81
2024-02-03T21:47:43.187Z,99489.00
2024-02-03T21:50:11.196Z,99474.94
2024-02-03T21:52:39.673Z,99477.25
2024-02-03T21:55:07.951Z,99464.44
2024-02-03T21:57:35.955Z,99472.47
2024-02-03T22:00:05.430Z,99477.41
2024-02-03T22:02:40.167Z,99463.28
2024-02-03T22:05:08.710Z,99454.16
2024-02-03T22:07:36.743Z,99456.91
2024-02-03T22:10:06.099Z,99448.47
2024-02-03T22:12:34.132Z,99443.84
2024-02-03T22:15:02.076Z,99454.63
2024-02-03T22:17:30.282Z,99440.94
2024-02-03T22:19:58.203Z,99427.25
2024-02-03T22:22:26.346Z,99426.84
2024-02-03T22:24:54.223Z,99423.13
2024-02-03T22:27:22.229Z,99421.69
2024-02-03T22:29:50.189Z,99418.34
2024-02-03T22:32:18.625Z,99425.34
2024-02-03T22:34:46.852Z,99422.50
2024-02-03T22:37:15.128Z,99421.59
2024-02-03T22:39:43.693Z,99426.13
2024-02-03T22:42:11.645Z,99425.47
2024-02-03T22:44:39.621Z,99425.88
2024-02-03T22:47:07.616Z,99434.63
2024-02-03T22:49:35.604Z,99419.38
2024-02-03T22:52:03.758Z,99414.66
2024-02-03T22:54:32.380Z,99426.41
2024-02-03T22:57:00.331Z,99427.97
2024-02-03T22:59:30.535Z,99433.38
2024-02-03T23:01:58.434Z,99425.28
2024-02-03T23:04:26.431Z,99432.91
2024-02-03T23:06:54.495Z,99430.53
2024-02-03T23:09:22.507Z,99434.00
2024-02-03T23:11:51.032Z,99429.69
2024-02-03T23:14:19.019Z,99434.00
2024-02-03T23:16:47.027Z,99419.75
2024-02-03T23:19:15.068Z,99417.28
2024-02-03T23:21:43.111Z,99428.06
2024-02-03T23:24:10.990Z,99418.53
2024-02-03T23:26:38.817Z,99416.88
2024-02-03T23:29:06.720Z,99434.63
2024-02-03T23:31:34.585Z,99426.56
2024-02-03T23:34:02.753Z,99431.16
2024-02-03T23:36:31.160Z,99425.78
2024-02-03T23:38:59.150Z,99437.47
2024-02-03T23:41:26.993Z,99433.56
2024-02-03T23:43:54.950Z,99415.56
2024-02-03T23:46:24.469Z,99427.13
2024-02-03T23:49:15.162Z,99416.06
2024-02-03T23:51:43.192Z,99422.31
2024-02-03T23:54:11.242Z,99411.69
2024-02-03T23:56:39.588Z,99417.56
2024-02-03T23:59:07.603Z,99406.56
